sensor_id;sensor_type;location;lat;lon;timestamp;P1;durP1;ratioP1;P2;durP2;ratioP2
17606;SDS011;8922;52.240;20.980;2022-11-15T00:00:05;21.83;;;14.27;;
17606;SDS011;8922;52.240;20.980;2022-11-15T00:02:34;17.93;;;13.07;;
17606;SDS011;8922;52.240;20.980;2022-11-15T00:05:01;18.30;;;13.20;;
17606;SDS011;8922;52.240;20.980;2022-11-15T00:07:29;19.43;;;13.80;;
17606;SDS011;8922;52.240;20.980;2022-11-15T00:09:56;18.87;;;13.57;;
17606;SDS011;8922;52.240;20.980;2022-11-15T00:12:23;20.63;;;13.70;;
17606;SDS011;8922;52.240;20.980;2022-11-15T00:14:50;19.20;;;13.10;;
17606;SDS011;8922;52.240;20.980;2022-11-15T00:17:16;20.73;;;14.00;;
17606;SDS011;8922;52.240;20.980;2022-11-15T00:19:43;21.60;;;13.87;;
17606;SDS011;8922;52.240;20.980;2022-11-15T00:22:10;18.83;;;13.00;;
17606;SDS011;8922;52.240;20.980;2022-11-15T00:24:38;19.40;;;14.20;;
17606;SDS011;8922;52.240;20.980;2022-11-15T00:27:05;18.73;;;13.30;;
17606;SDS011;8922;52.240;20.980;2022-11-15T00:29:32;17.73;;;13.03;;
17606;SDS011;8922;52.240;20.980;2022-11-15T00:31:58;19.97;;;14.30;;
17606;SDS011;8922;52.240;20.980;2022-11-15T00:34:25;20.63;;;13.97;;
17606;SDS011;8922;52.240;20.980;2022-11-15T00:36:52;23.60;;;13.77;;
17606;SDS011;8922;52.240;20.980;2022-11-15T00:39:19;24.30;;;13.93;;
17606;SDS011;8922;52.240;20.980;2022-11-15T00:41:47;20.53;;;14.17;;
17606;SDS011;8922;52.240;20.980;2022-11-15T00:44:14;19.57;;;14.10;;
17606;SDS011;8922;52.240;20.980;2022-11-15T00:46:40;23.93;;;15.10;;
17606;SDS011;8922;52.240;20.980;2022-11-15T00:49:07;19.90;;;14.27;;
17606;SDS011;8922;52.240;20.980;2022-11-15T00:51:34;23.90;;;14.87;;
17606;SDS011;8922;52.240;20.980;2022-11-15T00:54:01;23.57;;;14.33;;
17606;SDS011;8922;52.240;20.980;2022-11-15T00:56:28;23.83;;;15.10;;
17606;SDS011;8922;52.240;20.980;2022-11-15T00:58:56;22.70;;;15.17;;
17606;SDS011;8922;52.240;20.980;2022-11-15T01:01:23;24.53;;;15.13;;
17606;SDS011;8922;52.240;20.980;2022-11-15T01:03:50;24.03;;;16.00;;
17606;SDS011;8922;52.240;20.980;2022-11-15T01:06:17;22.83;;;15.57;;
17606;SDS011;8922;52.240;20.980;2022-11-15T01:08:43;24.67;;;16.57;;
17606;SDS011;8922;52.240;20.980;2022-11-15T01:11:11;26.80;;;16.97;;
17606;SDS011;8922;52.240;20.980;2022-11-15T01:13:38;26.40;;;16.30;;
17606;SDS011;8922;52.240;20.980;2022-11-15T01:16:07;24.37;;;16.17;;
17606;SDS011;8922;52.240;20.980;2022-11-15T01:18:35;25.60;;;16.50;;
17606;SDS011;8922;52.240;20.980;2022-11-15T01:21:04;23.70;;;15.87;;
17606;SDS011;8922;52.240;20.980;2022-11-15T01:23:32;26.17;;;17.10;;
17606;SDS011;8922;52.240;20.980;2022-11-15T01:25:59;25.90;;;16.57;;
17606;SDS011;8922;52.240;20.980;2022-11-15T01:28:29;25.63;;;17.13;;
17606;SDS011;8922;52.240;20.980;2022-11-15T01:30:57;29.13;;;17.27;;
17606;SDS011;8922;52.240;20.980;2022-11-15T01:33:26;29.07;;;18.37;;
17606;SDS011;8922;52.240;20.980;2022-11-15T01:35:54;30.40;;;18.07;;
17606;SDS011;8922;52.240;20.980;2022-11-15T01:38:21;29.60;;;17.73;;
17606;SDS011;8922;52.240;20.980;2022-11-15T01:40:48;31.57;;;17.90;;
17606;SDS011;8922;52.240;20.980;2022-11-15T01:43:19;28.80;;;17.83;;
17606;SDS011;8922;52.240;20.980;2022-11-15T01:45:47;28.50;;;17.80;;
17606;SDS011;8922;52.240;20.980;2022-11-15T01:48:18;32.93;;;18.50;;
17606;SDS011;8922;52.240;20.980;2022-11-15T01:50:48;29.77;;;17.70;;
17606;SDS011;8922;52.240;20.980;2022-11-15T01:53:16;28.70;;;17.07;;
17606;SDS011;8922;52.240;20.980;2022-11-15T01:55:45;31.00;;;18.10;;
17606;SDS011;8922;52.240;20.980;2022-11-15T01:58:12;31.00;;;19.50;;
17606;SDS011;8922;52.240;20.980;2022-11-15T02:00:39;30.83;;;18.13;;
17606;SDS011;8922;52.240;20.980;2022-11-15T02:03:06;28.30;;;17.80;;
17606;SDS011;8922;52.240;20.980;2022-11-15T02:05:33;27.83;;;17.10;;
17606;SDS011;8922;52.240;20.980;2022-11-15T02:08:04;29.77;;;18.33;;
17606;SDS011;8922;52.240;20.980;2022-11-15T02:10:32;29.73;;;17.63;;
17606;SDS011;8922;52.240;20.980;2022-11-15T02:12:59;31.10;;;18.10;;
17606;SDS011;8922;52.240;20.980;2022-11-15T02:15:28;27.17;;;16.93;;
17606;SDS011;8922;52.240;20.980;2022-11-15T02:18:07;27.17;;;17.37;;
17606;SDS011;8922;52.240;20.980;2022-11-15T02:20:47;29.43;;;17.50;;
17606;SDS011;8922;52.240;20.980;2022-11-15T02:26:35;28.13;;;17.40;;
17606;SDS011;8922;52.240;20.980;2022-11-15T02:29:20;26.63;;;17.63;;
17606;SDS011;8922;52.240;20.980;2022-11-15T02:32:02;30.10;;;18.30;;
17606;SDS011;8922;52.240;20.980;2022-11-15T02:34:33;29.73;;;17.03;;
17606;SDS011;8922;52.240;20.980;2022-11-15T02:37:09;32.97;;;17.63;;
17606;SDS011;8922;52.240;20.980;2022-11-15T02:39:44;27.77;;;17.87;;
17606;SDS011;8922;52.240;20.980;2022-11-15T02:42:19;27.33;;;17.27;;
17606;SDS011;8922;52.240;20.980;2022-11-15T02:45:07;28.33;;;17.27;;
17606;SDS011;8922;52.240;20.980;2022-11-15T02:47:40;29.93;;;18.03;;
17606;SDS011;8922;52.240;20.980;2022-11-15T02:50:10;26.67;;;17.27;;
17606;SDS011;8922;52.240;20.980;2022-11-15T02:52:39;30.43;;;17.97;;
17606;SDS011;8922;52.240;20.980;2022-11-15T02:57:57;32.70;;;19.60;;
17606;SDS011;8922;52.240;20.980;2022-11-15T03:00:43;30.37;;;18.40;;
17606;SDS011;8922;52.240;20.980;2022-11-15T03:03:21;28.67;;;17.80;;
17606;SDS011;8922;52.240;20.980;2022-11-15T03:06:04;31.87;;;19.50;;
17606;SDS011;8922;52.240;20.980;2022-11-15T03:08:40;32.90;;;20.17;;
17606;SDS011;8922;52.240;20.980;2022-11-15T03:11:14;32.60;;;19.23;;
17606;SDS011;8922;52.240;20.980;2022-11-15T03:13:44;32.63;;;20.57;;
17606;SDS011;8922;52.240;20.980;2022-11-15T03:16:19;32.40;;;20.00;;
17606;SDS011;8922;52.240;20.980;2022-11-15T03:18:52;33.70;;;20.43;;
17606;SDS011;8922;52.240;20.980;2022-11-15T03:21:23;33.10;;;19.47;;
17606;SDS011;8922;52.240;20.980;2022-11-15T03:23:51;32.53;;;20.03;;
17606;SDS011;8922;52.240;20.980;2022-11-15T03:26:21;33.53;;;20.13;;
17606;SDS011;8922;52.240;20.980;2022-11-15T03:28:50;33.33;;;20.17;;
17606;SDS011;8922;52.240;20.980;2022-11-15T03:31:19;35.67;;;20.20;;
17606;SDS011;8922;52.240;20.980;2022-11-15T03:34:08;34.60;;;20.10;;
17606;SDS011;8922;52.240;20.980;2022-11-15T03:36:40;30.87;;;19.93;;
17606;SDS011;8922;52.240;20.980;2022-11-15T03:39:07;31.47;;;20.20;;
17606;SDS011;8922;52.240;20.980;2022-11-15T03:41:35;33.53;;;19.67;;
17606;SDS011;8922;52.240;20.980;2022-11-15T03:44:10;36.00;;;20.77;;
17606;SDS011;8922;52.240;20.980;2022-11-15T03:46:43;35.63;;;20.73;;
17606;SDS011;8922;52.240;20.980;2022-11-15T03:49:17;35.03;;;21.20;;
17606;SDS011;8922;52.240;20.980;2022-11-15T03:51:49;36.17;;;21.70;;
17606;SDS011;8922;52.240;20.980;2022-11-15T03:54:16;37.03;;;21.57;;
17606;SDS011;8922;52.240;20.980;2022-11-15T03:56:43;34.37;;;20.13;;
17606;SDS011;8922;52.240;20.980;2022-11-15T03:59:10;37.93;;;21.73;;
17606;SDS011;8922;52.240;20.980;2022-11-15T04:01:37;36.60;;;22.00;;
17606;SDS011;8922;52.240;20.980;2022-11-15T04:04:04;37.20;;;20.40;;
17606;SDS011;8922;52.240;20.980;2022-11-15T04:06:32;36.33;;;21.67;;
17606;SDS011;8922;52.240;20.980;2022-11-15T04:08:59;34.43;;;20.80;;
17606;SDS011;8922;52.240;20.980;2022-11-15T04:11:25;34.13;;;20.93;;
17606;SDS011;8922;52.240;20.980;2022-11-15T04:13:52;36.67;;;20.13;;
17606;SDS011;8922;52.240;20.980;2022-11-15T04:16:19;35.37;;;19.97;;
17606;SDS011;8922;52.240;20.980;2022-11-15T04:18:46;32.70;;;20.37;;
17606;SDS011;8922;52.240;20.980;2022-11-15T04:21:34;35.37;;;19.87;;
17606;SDS011;8922;52.240;20.980;2022-11-15T04:24:18;35.33;;;20.63;;
17606;SDS011;8922;52.240;20.980;2022-11-15T04:26:45;35.13;;;20.27;;
17606;SDS011;8922;52.240;20.980;2022-11-15T04:29:12;36.17;;;19.50;;
17606;SDS011;8922;52.240;20.980;2022-11-15T04:31:56;35.90;;;20.63;;
17606;SDS011;8922;52.240;20.980;2022-11-15T04:34:23;35.10;;;20.00;;
17606;SDS011;8922;52.240;20.980;2022-11-15T04:36:51;32.20;;;19.37;;
17606;SDS011;8922;52.240;20.980;2022-11-15T04:39:35;34.40;;;19.53;;
17606;SDS011;8922;52.240;20.980;2022-11-15T04:42:02;40.43;;;22.07;;
17606;SDS011;8922;52.240;20.980;2022-11-15T04:44:29;35.77;;;20.43;;
17606;SDS011;8922;52.240;20.980;2022-11-15T04:46:56;35.50;;;21.00;;
17606;SDS011;8922;52.240;20.980;2022-11-15T04:49:23;38.57;;;20.90;;
17606;SDS011;8922;52.240;20.980;2022-11-15T04:51:50;35.33;;;20.83;;
17606;SDS011;8922;52.240;20.980;2022-11-15T04:54:18;34.77;;;20.03;;
17606;SDS011;8922;52.240;20.980;2022-11-15T04:56:45;33.90;;;19.90;;
17606;SDS011;8922;52.240;20.980;2022-11-15T04:59:11;32.03;;;18.90;;
17606;SDS011;8922;52.240;20.980;2022-11-15T05:01:38;35.97;;;19.10;;
17606;SDS011;8922;52.240;20.980;2022-11-15T05:04:05;33.43;;;18.53;;
17606;SDS011;8922;52.240;20.980;2022-11-15T05:06:44;35.20;;;18.73;;
17606;SDS011;8922;52.240;20.980;2022-11-15T05:09:12;35.93;;;19.60;;
17606;SDS011;8922;52.240;20.980;2022-11-15T05:11:39;34.83;;;19.90;;
17606;SDS011;8922;52.240;20.980;2022-11-15T05:14:06;33.80;;;19.13;;
17606;SDS011;8922;52.240;20.980;2022-11-15T05:16:33;42.33;;;20.23;;
17606;SDS011;8922;52.240;20.980;2022-11-15T05:19:00;36.10;;;20.70;;
17606;SDS011;8922;52.240;20.980;2022-11-15T05:21:27;34.10;;;19.20;;
17606;SDS011;8922;52.240;20.980;2022-11-15T05:23:54;36.53;;;19.90;;
17606;SDS011;8922;52.240;20.980;2022-11-15T05:26:22;36.70;;;19.53;;
17606;SDS011;8922;52.240;20.980;2022-11-15T05:28:51;36.17;;;20.17;;
17606;SDS011;8922;52.240;20.980;2022-11-15T05:31:19;36.67;;;19.60;;
17606;SDS011;8922;52.240;20.980;2022-11-15T05:33:45;38.07;;;19.93;;
17606;SDS011;8922;52.240;20.980;2022-11-15T05:36:15;38.60;;;19.43;;
17606;SDS011;8922;52.240;20.980;2022-11-15T05:38:46;38.27;;;20.07;;
17606;SDS011;8922;52.240;20.980;2022-11-15T05:41:14;41.47;;;21.03;;
17606;SDS011;8922;52.240;20.980;2022-11-15T05:43:44;36.33;;;19.37;;
17606;SDS011;8922;52.240;20.980;2022-11-15T05:46:12;38.00;;;20.67;;
17606;SDS011;8922;52.240;20.980;2022-11-15T05:48:40;37.87;;;20.33;;
17606;SDS011;8922;52.240;20.980;2022-11-15T05:51:11;35.20;;;19.97;;
17606;SDS011;8922;52.240;20.980;2022-11-15T05:53:40;35.80;;;19.33;;
17606;SDS011;8922;52.240;20.980;2022-11-15T05:56:07;37.83;;;20.37;;
17606;SDS011;8922;52.240;20.980;2022-11-15T05:58:36;37.17;;;18.43;;
17606;SDS011;8922;52.240;20.980;2022-11-15T06:01:05;33.77;;;18.70;;
17606;SDS011;8922;52.240;20.980;2022-11-15T06:03:32;34.77;;;18.60;;
17606;SDS011;8922;52.240;20.980;2022-11-15T06:05:59;38.87;;;21.00;;
17606;SDS011;8922;52.240;20.980;2022-11-15T06:08:25;36.00;;;20.20;;
17606;SDS011;8922;52.240;20.980;2022-11-15T06:10:52;40.70;;;21.00;;
17606;SDS011;8922;52.240;20.980;2022-11-15T06:13:19;41.47;;;22.10;;
17606;SDS011;8922;52.240;20.980;2022-11-15T06:15:46;41.50;;;23.27;;
17606;SDS011;8922;52.240;20.980;2022-11-15T06:18:14;38.47;;;21.17;;
17606;SDS011;8922;52.240;20.980;2022-11-15T06:20:41;40.27;;;20.83;;
17606;SDS011;8922;52.240;20.980;2022-11-15T06:23:08;35.80;;;19.20;;
17606;SDS011;8922;52.240;20.980;2022-11-15T06:25:34;36.57;;;20.70;;
17606;SDS011;8922;52.240;20.980;2022-11-15T06:28:01;36.80;;;18.70;;
17606;SDS011;8922;52.240;20.980;2022-11-15T06:30:28;36.77;;;19.80;;
17606;SDS011;8922;52.240;20.980;2022-11-15T06:32:59;34.37;;;18.10;;
17606;SDS011;8922;52.240;20.980;2022-11-15T06:35:28;30.00;;;16.53;;
17606;SDS011;8922;52.240;20.980;2022-11-15T06:37:55;31.43;;;16.63;;
17606;SDS011;8922;52.240;20.980;2022-11-15T06:40:27;29.77;;;16.43;;
17606;SDS011;8922;52.240;20.980;2022-11-15T06:42:56;29.07;;;15.80;;
17606;SDS011;8922;52.240;20.980;2022-11-15T06:45:24;29.63;;;16.20;;
17606;SDS011;8922;52.240;20.980;2022-11-15T06:47:51;31.47;;;18.07;;
17606;SDS011;8922;52.240;20.980;2022-11-15T06:50:18;29.30;;;16.40;;
17606;SDS011;8922;52.240;20.980;2022-11-15T06:52:46;30.47;;;15.43;;
17606;SDS011;8922;52.240;20.980;2022-11-15T06:55:13;33.47;;;16.27;;
17606;SDS011;8922;52.240;20.980;2022-11-15T06:57:45;30.23;;;16.73;;
17606;SDS011;8922;52.240;20.980;2022-11-15T07:00:14;32.80;;;15.83;;
17606;SDS011;8922;52.240;20.980;2022-11-15T07:02:41;29.87;;;17.80;;
17606;SDS011;8922;52.240;20.980;2022-11-15T07:05:08;28.03;;;15.40;;
17606;SDS011;8922;52.240;20.980;2022-11-15T07:07:36;28.77;;;16.47;;
17606;SDS011;8922;52.240;20.980;2022-11-15T07:10:05;26.40;;;14.77;;
17606;SDS011;8922;52.240;20.980;2022-11-15T07:12:33;28.33;;;14.10;;
17606;SDS011;8922;52.240;20.980;2022-11-15T07:15:00;29.27;;;14.30;;
17606;SDS011;8922;52.240;20.980;2022-11-15T07:17:27;24.87;;;14.07;;
17606;SDS011;8922;52.240;20.980;2022-11-15T07:19:53;24.03;;;14.33;;
17606;SDS011;8922;52.240;20.980;2022-11-15T07:22:20;28.33;;;14.67;;
17606;SDS011;8922;52.240;20.980;2022-11-15T07:24:47;24.83;;;14.40;;
17606;SDS011;8922;52.240;20.980;2022-11-15T07:27:15;29.52;;;18.13;;
17606;SDS011;8922;52.240;20.980;2022-11-15T07:29:42;24.37;;;14.97;;
17606;SDS011;8922;52.240;20.980;2022-11-15T07:32:09;23.87;;;14.17;;
17606;SDS011;8922;52.240;20.980;2022-11-15T07:34:36;29.43;;;15.90;;
17606;SDS011;8922;52.240;20.980;2022-11-15T07:37:02;27.33;;;15.23;;
17606;SDS011;8922;52.240;20.980;2022-11-15T07:39:29;28.73;;;15.97;;
17606;SDS011;8922;52.240;20.980;2022-11-15T07:41:56;32.53;;;16.77;;
17606;SDS011;8922;52.240;20.980;2022-11-15T07:44:40;31.77;;;15.83;;
17606;SDS011;8922;52.240;20.980;2022-11-15T07:47:07;28.70;;;15.90;;
17606;SDS011;8922;52.240;20.980;2022-11-15T07:49:35;28.63;;;15.17;;
17606;SDS011;8922;52.240;20.980;2022-11-15T07:52:02;28.67;;;15.47;;
17606;SDS011;8922;52.240;20.980;2022-11-15T07:54:29;27.53;;;14.57;;
17606;SDS011;8922;52.240;20.980;2022-11-15T07:56:56;27.30;;;14.00;;
17606;SDS011;8922;52.240;20.980;2022-11-15T07:59:23;29.40;;;14.73;;
17606;SDS011;8922;52.240;20.980;2022-11-15T08:01:51;27.33;;;15.37;;
17606;SDS011;8922;52.240;20.980;2022-11-15T08:04:18;26.57;;;15.80;;
17606;SDS011;8922;52.240;20.980;2022-11-15T08:06:45;28.00;;;16.63;;
17606;SDS011;8922;52.240;20.980;2022-11-15T08:09:12;29.53;;;15.83;;
17606;SDS011;8922;52.240;20.980;2022-11-15T08:11:39;30.57;;;16.67;;
17606;SDS011;8922;52.240;20.980;2022-11-15T08:14:05;30.83;;;16.57;;
17606;SDS011;8922;52.240;20.980;2022-11-15T08:16:32;29.30;;;15.33;;
17606;SDS011;8922;52.240;20.980;2022-11-15T08:19:00;25.83;;;15.47;;
17606;SDS011;8922;52.240;20.980;2022-11-15T08:21:27;25.30;;;15.23;;
17606;SDS011;8922;52.240;20.980;2022-11-15T08:23:54;29.80;;;15.93;;
17606;SDS011;8922;52.240;20.980;2022-11-15T08:26:21;27.40;;;15.40;;
17606;SDS011;8922;52.240;20.980;2022-11-15T08:28:49;27.30;;;15.13;;
17606;SDS011;8922;52.240;20.980;2022-11-15T08:31:17;27.07;;;14.73;;
17606;SDS011;8922;52.240;20.980;2022-11-15T08:33:44;27.77;;;15.60;;
17606;SDS011;8922;52.240;20.980;2022-11-15T08:36:13;29.23;;;15.60;;
17606;SDS011;8922;52.240;20.980;2022-11-15T08:38:41;24.43;;;14.80;;
17606;SDS011;8922;52.240;20.980;2022-11-15T08:41:09;25.67;;;15.17;;
17606;SDS011;8922;52.240;20.980;2022-11-15T08:43:39;24.70;;;14.30;;
17606;SDS011;8922;52.240;20.980;2022-11-15T08:46:07;24.87;;;14.07;;
17606;SDS011;8922;52.240;20.980;2022-11-15T08:48:36;23.37;;;14.10;;
17606;SDS011;8922;52.240;20.980;2022-11-15T08:51:03;26.53;;;15.37;;
17606;SDS011;8922;52.240;20.980;2022-11-15T08:53:32;25.53;;;16.10;;
17606;SDS011;8922;52.240;20.980;2022-11-15T08:56:00;33.37;;;18.37;;
17606;SDS011;8922;52.240;20.980;2022-11-15T08:58:27;25.87;;;15.33;;
17606;SDS011;8922;52.240;20.980;2022-11-15T09:00:55;24.17;;;15.10;;
17606;SDS011;8922;52.240;20.980;2022-11-15T09:03:24;24.10;;;15.03;;
17606;SDS011;8922;52.240;20.980;2022-11-15T09:05:53;28.50;;;15.33;;
17606;SDS011;8922;52.240;20.980;2022-11-15T09:08:22;27.13;;;15.80;;
17606;SDS011;8922;52.240;20.980;2022-11-15T09:10:50;26.37;;;14.20;;
17606;SDS011;8922;52.240;20.980;2022-11-15T09:13:17;26.30;;;15.83;;
17606;SDS011;8922;52.240;20.980;2022-11-15T09:15:44;29.93;;;16.57;;
17606;SDS011;8922;52.240;20.980;2022-11-15T09:18:11;25.23;;;15.63;;
17606;SDS011;8922;52.240;20.980;2022-11-15T09:20:37;31.33;;;16.60;;
17606;SDS011;8922;52.240;20.980;2022-11-15T09:23:05;29.00;;;16.10;;
17606;SDS011;8922;52.240;20.980;2022-11-15T09:25:32;25.73;;;14.63;;
17606;SDS011;8922;52.240;20.980;2022-11-15T09:28:00;25.10;;;15.20;;
17606;SDS011;8922;52.240;20.980;2022-11-15T09:30:31;24.73;;;15.60;;
17606;SDS011;8922;52.240;20.980;2022-11-15T09:32:58;26.30;;;16.03;;
17606;SDS011;8922;52.240;20.980;2022-11-15T09:35:26;27.67;;;15.63;;
17606;SDS011;8922;52.240;20.980;2022-11-15T09:37:53;32.10;;;20.67;;
17606;SDS011;8922;52.240;20.980;2022-11-15T09:40:21;25.50;;;16.50;;
17606;SDS011;8922;52.240;20.980;2022-11-15T09:42:54;44.43;;;26.00;;
17606;SDS011;8922;52.240;20.980;2022-11-15T09:45:34;27.53;;;15.67;;
17606;SDS011;8922;52.240;20.980;2022-11-15T09:48:24;35.33;;;17.40;;
17606;SDS011;8922;52.240;20.980;2022-11-15T09:51:01;26.33;;;15.93;;
17606;SDS011;8922;52.240;20.980;2022-11-15T09:53:31;35.97;;;21.25;;
17606;SDS011;8922;52.240;20.980;2022-11-15T09:56:02;27.30;;;17.13;;
17606;SDS011;8922;52.240;20.980;2022-11-15T09:58:36;26.20;;;16.00;;
17606;SDS011;8922;52.240;20.980;2022-11-15T10:01:12;27.13;;;15.63;;
17606;SDS011;8922;52.240;20.980;2022-11-15T10:03:45;27.20;;;15.87;;
17606;SDS011;8922;52.240;20.980;2022-11-15T10:06:18;30.07;;;17.67;;
17606;SDS011;8922;52.240;20.980;2022-11-15T10:08:54;29.67;;;16.33;;
17606;SDS011;8922;52.240;20.980;2022-11-15T10:11:25;24.73;;;14.77;;
17606;SDS011;8922;52.240;20.980;2022-11-15T10:13:56;29.33;;;17.00;;
17606;SDS011;8922;52.240;20.980;2022-11-15T10:16:34;26.43;;;15.57;;
17606;SDS011;8922;52.240;20.980;2022-11-15T10:19:20;24.93;;;15.17;;
17606;SDS011;8922;52.240;20.980;2022-11-15T10:21:55;27.50;;;16.00;;
17606;SDS011;8922;52.240;20.980;2022-11-15T10:24:39;24.63;;;15.57;;
17606;SDS011;8922;52.240;20.980;2022-11-15T10:27:09;27.97;;;15.90;;
17606;SDS011;8922;52.240;20.980;2022-11-15T10:29:43;29.17;;;17.37;;
17606;SDS011;8922;52.240;20.980;2022-11-15T10:32:17;29.10;;;17.37;;
17606;SDS011;8922;52.240;20.980;2022-11-15T10:34:46;25.77;;;17.07;;
17606;SDS011;8922;52.240;20.980;2022-11-15T10:37:14;27.97;;;16.53;;
17606;SDS011;8922;52.240;20.980;2022-11-15T10:40:02;29.77;;;16.70;;
17606;SDS011;8922;52.240;20.980;2022-11-15T10:42:30;31.03;;;17.03;;
17606;SDS011;8922;52.240;20.980;2022-11-15T10:44:58;27.50;;;16.13;;
17606;SDS011;8922;52.240;20.980;2022-11-15T10:47:26;26.00;;;15.87;;
17606;SDS011;8922;52.240;20.980;2022-11-15T10:49:59;25.73;;;15.77;;
17606;SDS011;8922;52.240;20.980;2022-11-15T10:52:28;25.00;;;15.57;;
17606;SDS011;8922;52.240;20.980;2022-11-15T10:54:59;31.77;;;18.07;;
17606;SDS011;8922;52.240;20.980;2022-11-15T10:57:30;29.03;;;16.67;;
17606;SDS011;8922;52.240;20.980;2022-11-15T11:00:03;24.73;;;16.53;;
17606;SDS011;8922;52.240;20.980;2022-11-15T11:02:33;25.80;;;16.27;;
17606;SDS011;8922;52.240;20.980;2022-11-15T11:05:03;27.73;;;17.67;;
17606;SDS011;8922;52.240;20.980;2022-11-15T11:07:34;26.87;;;17.33;;
17606;SDS011;8922;52.240;20.980;2022-11-15T11:10:03;25.00;;;15.67;;
17606;SDS011;8922;52.240;20.980;2022-11-15T11:12:42;29.77;;;16.27;;
17606;SDS011;8922;52.240;20.980;2022-11-15T11:15:11;28.07;;;16.03;;
17606;SDS011;8922;52.240;20.980;2022-11-15T11:17:45;30.20;;;17.77;;
17606;SDS011;8922;52.240;20.980;2022-11-15T11:20:20;29.47;;;17.50;;
17606;SDS011;8922;52.240;20.980;2022-11-15T11:22:56;28.53;;;18.13;;
17606;SDS011;8922;52.240;20.980;2022-11-15T11:25:45;25.70;;;16.73;;
17606;SDS011;8922;52.240;20.980;2022-11-15T11:28:25;30.10;;;16.77;;
17606;SDS011;8922;52.240;20.980;2022-11-15T11:33:58;30.37;;;17.60;;
17606;SDS011;8922;52.240;20.980;2022-11-15T11:36:36;33.10;;;17.53;;
17606;SDS011;8922;52.240;20.980;2022-11-15T11:39:17;31.30;;;18.30;;
17606;SDS011;8922;52.240;20.980;2022-11-15T11:41:53;29.73;;;18.27;;
17606;SDS011;8922;52.240;20.980;2022-11-15T11:44:33;30.97;;;18.10;;
17606;SDS011;8922;52.240;20.980;2022-11-15T11:47:09;31.77;;;18.60;;
17606;SDS011;8922;52.240;20.980;2022-11-15T11:49:39;29.67;;;18.07;;
17606;SDS011;8922;52.240;20.980;2022-11-15T11:52:13;30.03;;;18.10;;
17606;SDS011;8922;52.240;20.980;2022-11-15T11:54:47;31.90;;;18.77;;
17606;SDS011;8922;52.240;20.980;2022-11-15T11:57:23;32.80;;;19.70;;
17606;SDS011;8922;52.240;20.980;2022-11-15T11:59:56;36.20;;;18.93;;
17606;SDS011;8922;52.240;20.980;2022-11-15T12:02:30;31.40;;;19.03;;
17606;SDS011;8922;52.240;20.980;2022-11-15T12:05:03;30.70;;;18.50;;
17606;SDS011;8922;52.240;20.980;2022-11-15T12:07:36;30.33;;;19.23;;
17606;SDS011;8922;52.240;20.980;2022-11-15T12:10:11;34.40;;;20.93;;
17606;SDS011;8922;52.240;20.980;2022-11-15T12:12:49;39.90;;;22.30;;
17606;SDS011;8922;52.240;20.980;2022-11-15T12:15:22;35.20;;;21.77;;
17606;SDS011;8922;52.240;20.980;2022-11-15T12:17:52;39.33;;;22.23;;
17606;SDS011;8922;52.240;20.980;2022-11-15T12:20:22;39.37;;;21.97;;
17606;SDS011;8922;52.240;20.980;2022-11-15T12:22:54;37.20;;;21.83;;
17606;SDS011;8922;52.240;20.980;2022-11-15T12:25:24;37.13;;;22.23;;
17606;SDS011;8922;52.240;20.980;2022-11-15T12:27:56;38.20;;;22.87;;
17606;SDS011;8922;52.240;20.980;2022-11-15T12:30:29;36.27;;;22.03;;
17606;SDS011;8922;52.240;20.980;2022-11-15T12:33:27;31.67;;;18.90;;
17606;SDS011;8922;52.240;20.980;2022-11-15T12:36:03;34.33;;;21.23;;
17606;SDS011;8922;52.240;20.980;2022-11-15T12:38:52;40.97;;;22.23;;
17606;SDS011;8922;52.240;20.980;2022-11-15T12:41:21;38.07;;;21.57;;
17606;SDS011;8922;52.240;20.980;2022-11-15T12:43:49;34.10;;;20.47;;
17606;SDS011;8922;52.240;20.980;2022-11-15T12:46:20;34.17;;;21.93;;
17606;SDS011;8922;52.240;20.980;2022-11-15T12:48:52;36.87;;;21.13;;
17606;SDS011;8922;52.240;20.980;2022-11-15T12:51:21;35.00;;;21.07;;
17606;SDS011;8922;52.240;20.980;2022-11-15T12:57:22;34.90;;;20.97;;
17606;SDS011;8922;52.240;20.980;2022-11-15T12:59:59;32.77;;;21.07;;
17606;SDS011;8922;52.240;20.980;2022-11-15T13:02:29;33.40;;;19.63;;
17606;SDS011;8922;52.240;20.980;2022-11-15T13:08:01;40.28;;;27.05;;
17606;SDS011;8922;52.240;20.980;2022-11-15T13:10:29;35.23;;;22.60;;
17606;SDS011;8922;52.240;20.980;2022-11-15T13:12:58;32.93;;;21.30;;
17606;SDS011;8922;52.240;20.980;2022-11-15T13:18:26;34.63;;;19.70;;
17606;SDS011;8922;52.240;20.980;2022-11-15T13:21:02;33.27;;;21.03;;
17606;SDS011;8922;52.240;20.980;2022-11-15T13:23:54;36.73;;;21.80;;
17606;SDS011;8922;52.240;20.980;2022-11-15T13:26:21;38.80;;;23.95;;
17606;SDS011;8922;52.240;20.980;2022-11-15T13:28:49;36.03;;;21.77;;
17606;SDS011;8922;52.240;20.980;2022-11-15T13:31:24;36.23;;;22.30;;
17606;SDS011;8922;52.240;20.980;2022-11-15T13:33:55;38.00;;;22.00;;
17606;SDS011;8922;52.240;20.980;2022-11-15T13:36:24;34.03;;;21.13;;
17606;SDS011;8922;52.240;20.980;2022-11-15T13:38:56;35.13;;;21.40;;
17606;SDS011;8922;52.240;20.980;2022-11-15T13:41:25;31.57;;;19.97;;
17606;SDS011;8922;52.240;20.980;2022-11-15T13:43:53;33.00;;;19.80;;
17606;SDS011;8922;52.240;20.980;2022-11-15T13:46:21;35.47;;;21.70;;
17606;SDS011;8922;52.240;20.980;2022-11-15T13:48:53;36.20;;;22.33;;
17606;SDS011;8922;52.240;20.980;2022-11-15T13:51:29;33.57;;;20.80;;
17606;SDS011;8922;52.240;20.980;2022-11-15T13:54:02;36.40;;;21.40;;
17606;SDS011;8922;52.240;20.980;2022-11-15T13:56:36;40.00;;;21.67;;
17606;SDS011;8922;52.240;20.980;2022-11-15T13:59:14;39.33;;;22.47;;
17606;SDS011;8922;52.240;20.980;2022-11-15T14:01:45;33.23;;;21.47;;
17606;SDS011;8922;52.240;20.980;2022-11-15T14:04:13;39.33;;;22.57;;
17606;SDS011;8922;52.240;20.980;2022-11-15T14:06:44;38.13;;;22.43;;
17606;SDS011;8922;52.240;20.980;2022-11-15T14:14:55;35.83;;;21.10;;
17606;SDS011;8922;52.240;20.980;2022-11-15T14:17:33;40.33;;;22.63;;
17606;SDS011;8922;52.240;20.980;2022-11-15T14:20:01;35.23;;;22.30;;
17606;SDS011;8922;52.240;20.980;2022-11-15T14:22:50;43.67;;;22.77;;
17606;SDS011;8922;52.240;20.980;2022-11-15T14:25:20;39.13;;;21.83;;
17606;SDS011;8922;52.240;20.980;2022-11-15T14:30:35;48.27;;;23.83;;
17606;SDS011;8922;52.240;20.980;2022-11-15T14:33:11;37.57;;;22.40;;
17606;SDS011;8922;52.240;20.980;2022-11-15T14:35:44;41.90;;;22.43;;
17606;SDS011;8922;52.240;20.980;2022-11-15T14:38:11;40.50;;;23.33;;
17606;SDS011;8922;52.240;20.980;2022-11-15T14:40:39;41.57;;;21.97;;
17606;SDS011;8922;52.240;20.980;2022-11-15T14:43:07;41.70;;;22.20;;
17606;SDS011;8922;52.240;20.980;2022-11-15T14:45:35;40.50;;;23.77;;
17606;SDS011;8922;52.240;20.980;2022-11-15T14:48:02;41.80;;;22.53;;
17606;SDS011;8922;52.240;20.980;2022-11-15T14:50:29;39.47;;;22.70;;
17606;SDS011;8922;52.240;20.980;2022-11-15T14:52:56;39.50;;;21.47;;
17606;SDS011;8922;52.240;20.980;2022-11-15T14:55:24;38.60;;;22.83;;
17606;SDS011;8922;52.240;20.980;2022-11-15T14:57:55;35.17;;;20.53;;
17606;SDS011;8922;52.240;20.980;2022-11-15T15:00:21;34.70;;;20.37;;
17606;SDS011;8922;52.240;20.980;2022-11-15T15:02:50;34.30;;;20.13;;
17606;SDS011;8922;52.240;20.980;2022-11-15T15:05:21;38.50;;;21.23;;